sensor_id;sensor_type;location;lat;lon;timestamp;P1;durP1;ratioP1;P2;durP2;ratioP2
12900;SDS011;6518;50.930;5.344;2023-12-22T00:02:04;7.47;;;2.27;;
12900;SDS011;6518;50.930;5.344;2023-12-22T00:04:31;7.57;;;1.73;;
12900;SDS011;6518;50.930;5.344;2023-12-22T00:06:59;13.53;;;2.40;;
12900;SDS011;6518;50.930;5.344;2023-12-22T00:09:26;12.43;;;3.17;;
12900;SDS011;6518;50.930;5.344;2023-12-22T00:11:53;13.07;;;2.93;;
12900;SDS011;6518;50.930;5.344;2023-12-22T00:14:20;14.57;;;2.93;;
12900;SDS011;6518;50.930;5.344;2023-12-22T00:16:47;16.80;;;3.27;;
12900;SDS011;6518;50.930;5.344;2023-12-22T00:19:14;12.33;;;2.80;;
12900;SDS011;6518;50.930;5.344;2023-12-22T00:21:41;15.60;;;3.40;;
12900;SDS011;6518;50.930;5.344;2023-12-22T00:24:09;13.07;;;3.13;;
12900;SDS011;6518;50.930;5.344;2023-12-22T00:26:36;11.90;;;2.87;;
12900;SDS011;6518;50.930;5.344;2023-12-22T00:29:03;10.77;;;2.67;;
12900;SDS011;6518;50.930;5.344;2023-12-22T00:31:30;12.77;;;3.10;;
12900;SDS011;6518;50.930;5.344;2023-12-22T00:33:57;12.50;;;3.73;;
12900;SDS011;6518;50.930;5.344;2023-12-22T00:36:23;12.40;;;2.70;;
12900;SDS011;6518;50.930;5.344;2023-12-22T00:38:50;13.57;;;3.10;;
12900;SDS011;6518;50.930;5.344;2023-12-22T00:41:19;12.33;;;2.90;;
12900;SDS011;6518;50.930;5.344;2023-12-22T00:43:46;12.50;;;2.77;;
12900;SDS011;6518;50.930;5.344;2023-12-22T00:46:13;16.67;;;2.80;;
12900;SDS011;6518;50.930;5.344;2023-12-22T00:48:40;17.97;;;2.90;;
12900;SDS011;6518;50.930;5.344;2023-12-22T00:51:08;12.73;;;2.90;;
12900;SDS011;6518;50.930;5.344;2023-12-22T00:53:35;13.93;;;2.63;;
12900;SDS011;6518;50.930;5.344;2023-12-22T00:56:03;12.87;;;3.10;;
12900;SDS011;6518;50.930;5.344;2023-12-22T01:01:10;11.83;;;2.70;;
12900;SDS011;6518;50.930;5.344;2023-12-22T01:03:37;11.43;;;3.27;;
12900;SDS011;6518;50.930;5.344;2023-12-22T01:06:04;13.47;;;2.60;;
12900;SDS011;6518;50.930;5.344;2023-12-22T01:08:31;16.13;;;2.97;;
12900;SDS011;6518;50.930;5.344;2023-12-22T01:10:58;7.23;;;1.97;;
12900;SDS011;6518;50.930;5.344;2023-12-22T01:13:25;10.20;;;2.17;;
12900;SDS011;6518;50.930;5.344;2023-12-22T01:15:53;8.67;;;1.80;;
12900;SDS011;6518;50.930;5.344;2023-12-22T01:18:20;14.93;;;2.70;;
12900;SDS011;6518;50.930;5.344;2023-12-22T01:20:47;11.73;;;2.50;;
12900;SDS011;6518;50.930;5.344;2023-12-22T01:23:14;11.10;;;2.40;;
12900;SDS011;6518;50.930;5.344;2023-12-22T01:25:41;12.83;;;2.50;;
12900;SDS011;6518;50.930;5.344;2023-12-22T01:28:08;14.23;;;2.27;;
12900;SDS011;6518;50.930;5.344;2023-12-22T01:30:35;4.93;;;1.50;;
12900;SDS011;6518;50.930;5.344;2023-12-22T01:33:04;11.10;;;2.77;;
12900;SDS011;6518;50.930;5.344;2023-12-22T01:35:31;8.53;;;1.87;;
12900;SDS011;6518;50.930;5.344;2023-12-22T01:37:57;8.17;;;1.97;;
12900;SDS011;6518;50.930;5.344;2023-12-22T01:40:24;8.77;;;2.00;;
12900;SDS011;6518;50.930;5.344;2023-12-22T01:42:51;12.87;;;2.67;;
12900;SDS011;6518;50.930;5.344;2023-12-22T01:45:18;13.47;;;3.10;;
12900;SDS011;6518;50.930;5.344;2023-12-22T01:47:45;15.43;;;2.87;;
12900;SDS011;6518;50.930;5.344;2023-12-22T01:50:14;11.53;;;2.20;;
12900;SDS011;6518;50.930;5.344;2023-12-22T01:52:42;13.60;;;2.73;;
12900;SDS011;6518;50.930;5.344;2023-12-22T01:55:10;10.27;;;2.77;;
12900;SDS011;6518;50.930;5.344;2023-12-22T01:57:39;15.77;;;2.77;;
12900;SDS011;6518;50.930;5.344;2023-12-22T02:00:07;11.50;;;2.93;;
12900;SDS011;6518;50.930;5.344;2023-12-22T02:02:34;10.57;;;2.63;;
12900;SDS011;6518;50.930;5.344;2023-12-22T02:05:01;8.53;;;2.23;;
12900;SDS011;6518;50.930;5.344;2023-12-22T02:07:29;10.27;;;2.30;;
12900;SDS011;6518;50.930;5.344;2023-12-22T02:09:56;11.70;;;2.50;;
12900;SDS011;6518;50.930;5.344;2023-12-22T02:12:24;8.50;;;2.67;;
12900;SDS011;6518;50.930;5.344;2023-12-22T02:14:50;7.33;;;2.00;;
12900;SDS011;6518;50.930;5.344;2023-12-22T02:17:18;15.10;;;3.50;;
12900;SDS011;6518;50.930;5.344;2023-12-22T02:19:51;6.90;;;1.80;;
12900;SDS011;6518;50.930;5.344;2023-12-22T02:22:21;14.10;;;3.17;;
12900;SDS011;6518;50.930;5.344;2023-12-22T02:24:49;10.80;;;2.37;;
12900;SDS011;6518;50.930;5.344;2023-12-22T02:27:22;9.33;;;2.23;;
12900;SDS011;6518;50.930;5.344;2023-12-22T02:29:57;12.53;;;2.97;;
12900;SDS011;6518;50.930;5.344;2023-12-22T02:32:32;19.50;;;3.30;;
12900;SDS011;6518;50.930;5.344;2023-12-22T02:35:03;14.23;;;2.67;;
12900;SDS011;6518;50.930;5.344;2023-12-22T02:37:33;12.33;;;2.43;;
12900;SDS011;6518;50.930;5.344;2023-12-22T02:40:03;13.10;;;3.07;;
12900;SDS011;6518;50.930;5.344;2023-12-22T02:42:31;13.13;;;2.80;;
12900;SDS011;6518;50.930;5.344;2023-12-22T02:45:01;12.00;;;2.70;;
12900;SDS011;6518;50.930;5.344;2023-12-22T02:47:29;14.67;;;3.10;;
12900;SDS011;6518;50.930;5.344;2023-12-22T02:49:57;14.23;;;2.97;;
12900;SDS011;6518;50.930;5.344;2023-12-22T02:52:24;16.30;;;3.07;;
12900;SDS011;6518;50.930;5.344;2023-12-22T02:54:51;11.90;;;2.63;;
12900;SDS011;6518;50.930;5.344;2023-12-22T02:57:19;14.20;;;3.57;;
12900;SDS011;6518;50.930;5.344;2023-12-22T02:59:46;15.50;;;3.00;;
12900;SDS011;6518;50.930;5.344;2023-12-22T03:02:13;13.00;;;3.50;;
12900;SDS011;6518;50.930;5.344;2023-12-22T03:04:40;18.17;;;3.47;;
12900;SDS011;6518;50.930;5.344;2023-12-22T03:07:07;14.83;;;3.03;;
12900;SDS011;6518;50.930;5.344;2023-12-22T03:09:34;11.83;;;2.40;;
12900;SDS011;6518;50.930;5.344;2023-12-22T03:12:01;16.30;;;2.80;;
12900;SDS011;6518;50.930;5.344;2023-12-22T03:14:30;13.90;;;3.30;;
12900;SDS011;6518;50.930;5.344;2023-12-22T03:16:58;12.53;;;3.30;;
12900;SDS011;6518;50.930;5.344;2023-12-22T03:19:26;14.77;;;3.00;;
12900;SDS011;6518;50.930;5.344;2023-12-22T03:21:53;13.50;;;3.07;;
12900;SDS011;6518;50.930;5.344;2023-12-22T03:24:20;17.80;;;3.77;;
12900;SDS011;6518;50.930;5.344;2023-12-22T03:26:47;16.03;;;3.17;;
12900;SDS011;6518;50.930;5.344;2023-12-22T03:29:15;16.83;;;3.10;;
12900;SDS011;6518;50.930;5.344;2023-12-22T03:31:44;13.37;;;3.00;;
12900;SDS011;6518;50.930;5.344;2023-12-22T03:34:11;12.13;;;2.60;;
12900;SDS011;6518;50.930;5.344;2023-12-22T03:36:38;13.10;;;2.63;;
12900;SDS011;6518;50.930;5.344;2023-12-22T03:39:06;13.90;;;2.70;;
12900;SDS011;6518;50.930;5.344;2023-12-22T03:41:34;13.13;;;2.40;;
12900;SDS011;6518;50.930;5.344;2023-12-22T03:44:01;15.30;;;3.00;;
12900;SDS011;6518;50.930;5.344;2023-12-22T03:46:28;8.63;;;2.13;;
12900;SDS011;6518;50.930;5.344;2023-12-22T03:48:56;11.60;;;2.57;;
12900;SDS011;6518;50.930;5.344;2023-12-22T03:51:23;7.57;;;2.70;;
12900;SDS011;6518;50.930;5.344;2023-12-22T03:53:50;13.93;;;2.73;;
12900;SDS011;6518;50.930;5.344;2023-12-22T03:56:17;10.63;;;2.00;;
12900;SDS011;6518;50.930;5.344;2023-12-22T03:58:45;7.33;;;1.60;;
12900;SDS011;6518;50.930;5.344;2023-12-22T04:01:13;10.50;;;2.13;;
12900;SDS011;6518;50.930;5.344;2023-12-22T04:03:40;11.23;;;2.13;;
12900;SDS011;6518;50.930;5.344;2023-12-22T04:06:09;9.00;;;2.50;;
12900;SDS011;6518;50.930;5.344;2023-12-22T04:08:36;12.50;;;2.57;;
12900;SDS011;6518;50.930;5.344;2023-12-22T04:11:03;12.10;;;2.50;;
12900;SDS011;6518;50.930;5.344;2023-12-22T04:13:30;9.87;;;2.33;;
12900;SDS011;6518;50.930;5.344;2023-12-22T04:15:57;7.00;;;2.37;;
12900;SDS011;6518;50.930;5.344;2023-12-22T04:18:24;15.70;;;2.90;;
12900;SDS011;6518;50.930;5.344;2023-12-22T04:20:51;8.20;;;2.57;;
12900;SDS011;6518;50.930;5.344;2023-12-22T04:23:21;14.13;;;2.53;;
12900;SDS011;6518;50.930;5.344;2023-12-22T04:25:48;7.47;;;2.33;;
12900;SDS011;6518;50.930;5.344;2023-12-22T04:28:16;15.17;;;2.23;;
12900;SDS011;6518;50.930;5.344;2023-12-22T04:30:43;11.40;;;2.57;;
12900;SDS011;6518;50.930;5.344;2023-12-22T04:33:10;8.13;;;1.50;;
12900;SDS011;6518;50.930;5.344;2023-12-22T04:35:37;14.27;;;3.00;;
12900;SDS011;6518;50.930;5.344;2023-12-22T04:38:04;12.63;;;2.47;;
12900;SDS011;6518;50.930;5.344;2023-12-22T04:40:33;13.13;;;2.70;;
12900;SDS011;6518;50.930;5.344;2023-12-22T04:43:01;14.27;;;2.77;;
12900;SDS011;6518;50.930;5.344;2023-12-22T04:45:28;15.00;;;3.00;;
12900;SDS011;6518;50.930;5.344;2023-12-22T04:47:55;8.13;;;2.40;;
12900;SDS011;6518;50.930;5.344;2023-12-22T04:50:22;7.50;;;2.17;;
12900;SDS011;6518;50.930;5.344;2023-12-22T04:52:49;13.87;;;2.60;;
12900;SDS011;6518;50.930;5.344;2023-12-22T04:55:16;12.30;;;3.07;;
12900;SDS011;6518;50.930;5.344;2023-12-22T04:57:44;10.97;;;2.77;;
12900;SDS011;6518;50.930;5.344;2023-12-22T05:00:11;17.03;;;3.73;;
12900;SDS011;6518;50.930;5.344;2023-12-22T05:02:39;17.03;;;4.27;;
12900;SDS011;6518;50.930;5.344;2023-12-22T05:05:07;12.87;;;3.77;;
12900;SDS011;6518;50.930;5.344;2023-12-22T05:07:33;15.57;;;3.30;;
12900;SDS011;6518;50.930;5.344;2023-12-22T05:10:00;12.30;;;3.27;;
12900;SDS011;6518;50.930;5.344;2023-12-22T05:12:28;12.17;;;2.80;;
12900;SDS011;6518;50.930;5.344;2023-12-22T05:14:56;13.50;;;3.20;;
12900;SDS011;6518;50.930;5.344;2023-12-22T05:17:22;13.57;;;3.47;;
12900;SDS011;6518;50.930;5.344;2023-12-22T05:19:49;14.47;;;3.43;;
12900;SDS011;6518;50.930;5.344;2023-12-22T05:22:15;13.23;;;3.23;;
12900;SDS011;6518;50.930;5.344;2023-12-22T05:24:42;11.43;;;2.63;;
12900;SDS011;6518;50.930;5.344;2023-12-22T05:27:09;16.07;;;3.37;;
12900;SDS011;6518;50.930;5.344;2023-12-22T05:29:36;16.40;;;4.10;;
12900;SDS011;6518;50.930;5.344;2023-12-22T05:32:05;17.97;;;4.10;;
12900;SDS011;6518;50.930;5.344;2023-12-22T05:34:32;16.23;;;3.70;;
12900;SDS011;6518;50.930;5.344;2023-12-22T05:36:59;19.63;;;3.90;;
12900;SDS011;6518;50.930;5.344;2023-12-22T05:39:26;21.37;;;3.83;;
12900;SDS011;6518;50.930;5.344;2023-12-22T05:41:53;25.30;;;4.77;;
12900;SDS011;6518;50.930;5.344;2023-12-22T05:44:20;14.63;;;4.13;;
12900;SDS011;6518;50.930;5.344;2023-12-22T05:46:49;13.67;;;3.30;;
12900;SDS011;6518;50.930;5.344;2023-12-22T05:49:17;21.63;;;4.30;;
12900;SDS011;6518;50.930;5.344;2023-12-22T05:51:44;18.30;;;3.87;;
12900;SDS011;6518;50.930;5.344;2023-12-22T05:54:11;25.83;;;5.27;;
12900;SDS011;6518;50.930;5.344;2023-12-22T05:56:38;24.03;;;5.30;;
12900;SDS011;6518;50.930;5.344;2023-12-22T05:59:05;27.87;;;4.73;;
12900;SDS011;6518;50.930;5.344;2023-12-22T06:01:32;26.90;;;5.27;;
12900;SDS011;6518;50.930;5.344;2023-12-22T06:03:59;19.20;;;4.63;;
12900;SDS011;6518;50.930;5.344;2023-12-22T06:06:27;24.27;;;5.40;;
12900;SDS011;6518;50.930;5.344;2023-12-22T06:08:55;22.13;;;4.60;;
12900;SDS011;6518;50.930;5.344;2023-12-22T06:11:22;31.20;;;5.53;;
12900;SDS011;6518;50.930;5.344;2023-12-22T06:13:49;15.23;;;3.47;;
12900;SDS011;6518;50.930;5.344;2023-12-22T06:16:16;23.83;;;5.00;;
12900;SDS011;6518;50.930;5.344;2023-12-22T06:18:43;25.63;;;4.80;;
12900;SDS011;6518;50.930;5.344;2023-12-22T06:21:10;22.17;;;4.73;;
12900;SDS011;6518;50.930;5.344;2023-12-22T06:23:38;32.17;;;5.20;;
12900;SDS011;6518;50.930;5.344;2023-12-22T06:26:08;24.37;;;4.67;;
12900;SDS011;6518;50.930;5.344;2023-12-22T06:28:36;35.60;;;5.60;;
12900;SDS011;6518;50.930;5.344;2023-12-22T06:31:04;27.93;;;4.20;;
12900;SDS011;6518;50.930;5.344;2023-12-22T06:33:31;20.47;;;4.13;;
12900;SDS011;6518;50.930;5.344;2023-12-22T06:35:58;25.77;;;5.33;;
12900;SDS011;6518;50.930;5.344;2023-12-22T06:38:25;22.70;;;4.83;;
12900;SDS011;6518;50.930;5.344;2023-12-22T06:40:54;22.83;;;4.33;;
12900;SDS011;6518;50.930;5.344;2023-12-22T06:43:21;17.13;;;3.33;;
12900;SDS011;6518;50.930;5.344;2023-12-22T06:45:48;20.23;;;4.03;;
12900;SDS011;6518;50.930;5.344;2023-12-22T06:48:18;19.70;;;4.83;;
12900;SDS011;6518;50.930;5.344;2023-12-22T06:50:45;26.27;;;5.20;;
12900;SDS011;6518;50.930;5.344;2023-12-22T06:53:12;23.37;;;5.27;;
12900;SDS011;6518;50.930;5.344;2023-12-22T06:55:39;27.30;;;4.50;;
12900;SDS011;6518;50.930;5.344;2023-12-22T06:58:07;22.10;;;5.13;;
12900;SDS011;6518;50.930;5.344;2023-12-22T07:00:34;20.23;;;5.40;;
12900;SDS011;6518;50.930;5.344;2023-12-22T07:03:03;26.73;;;5.50;;
12900;SDS011;6518;50.930;5.344;2023-12-22T07:05:31;22.60;;;5.40;;
12900;SDS011;6518;50.930;5.344;2023-12-22T07:08:01;29.37;;;5.23;;
12900;SDS011;6518;50.930;5.344;2023-12-22T07:10:30;25.43;;;5.57;;
12900;SDS011;6518;50.930;5.344;2023-12-22T07:12:57;27.43;;;5.80;;
12900;SDS011;6518;50.930;5.344;2023-12-22T07:15:25;27.30;;;5.67;;
12900;SDS011;6518;50.930;5.344;2023-12-22T07:17:53;23.37;;;5.17;;
12900;SDS011;6518;50.930;5.344;2023-12-22T07:20:20;22.03;;;4.93;;
12900;SDS011;6518;50.930;5.344;2023-12-22T07:22:47;19.00;;;3.90;;
12900;SDS011;6518;50.930;5.344;2023-12-22T07:25:15;27.43;;;4.63;;
12900;SDS011;6518;50.930;5.344;2023-12-22T07:27:44;26.47;;;5.20;;
12900;SDS011;6518;50.930;5.344;2023-12-22T07:30:11;24.10;;;5.53;;
12900;SDS011;6518;50.930;5.344;2023-12-22T07:32:43;19.17;;;4.47;;
12900;SDS011;6518;50.930;5.344;2023-12-22T07:35:13;24.07;;;4.37;;
12900;SDS011;6518;50.930;5.344;2023-12-22T07:37:40;18.73;;;4.50;;
12900;SDS011;6518;50.930;5.344;2023-12-22T07:40:07;19.97;;;4.47;;
12900;SDS011;6518;50.930;5.344;2023-12-22T07:42:35;20.43;;;3.93;;
12900;SDS011;6518;50.930;5.344;2023-12-22T07:45:04;15.07;;;3.83;;
12900;SDS011;6518;50.930;5.344;2023-12-22T07:47:32;18.67;;;3.60;;
12900;SDS011;6518;50.930;5.344;2023-12-22T07:50:01;12.40;;;3.33;;
12900;SDS011;6518;50.930;5.344;2023-12-22T07:52:28;20.60;;;3.77;;
12900;SDS011;6518;50.930;5.344;2023-12-22T07:54:55;17.47;;;4.07;;
12900;SDS011;6518;50.930;5.344;2023-12-22T07:57:21;17.23;;;3.63;;
12900;SDS011;6518;50.930;5.344;2023-12-22T07:59:48;8.67;;;2.40;;
12900;SDS011;6518;50.930;5.344;2023-12-22T08:02:15;18.87;;;4.00;;
12900;SDS011;6518;50.930;5.344;2023-12-22T08:04:42;14.43;;;3.10;;
12900;SDS011;6518;50.930;5.344;2023-12-22T08:07:11;6.00;;;1.97;;
12900;SDS011;6518;50.930;5.344;2023-12-22T08:09:38;14.70;;;3.27;;
12900;SDS011;6518;50.930;5.344;2023-12-22T08:12:05;11.70;;;3.20;;
12900;SDS011;6518;50.930;5.344;2023-12-22T08:14:33;11.73;;;3.30;;
12900;SDS011;6518;50.930;5.344;2023-12-22T08:17:00;13.27;;;2.53;;
12900;SDS011;6518;50.930;5.344;2023-12-22T08:19:27;10.83;;;3.03;;
12900;SDS011;6518;50.930;5.344;2023-12-22T08:21:53;11.80;;;2.63;;
12900;SDS011;6518;50.930;5.344;2023-12-22T08:24:22;12.07;;;2.60;;
12900;SDS011;6518;50.930;5.344;2023-12-22T08:26:49;12.87;;;2.67;;
12900;SDS011;6518;50.930;5.344;2023-12-22T08:29:16;13.33;;;2.97;;
12900;SDS011;6518;50.930;5.344;2023-12-22T08:31:44;8.23;;;2.70;;
12900;SDS011;6518;50.930;5.344;2023-12-22T08:34:11;10.30;;;2.90;;
12900;SDS011;6518;50.930;5.344;2023-12-22T08:36:38;11.07;;;3.30;;
12900;SDS011;6518;50.930;5.344;2023-12-22T08:39:04;17.93;;;3.30;;
12900;SDS011;6518;50.930;5.344;2023-12-22T08:41:34;12.83;;;3.50;;
12900;SDS011;6518;50.930;5.344;2023-12-22T08:44:02;13.70;;;3.40;;
12900;SDS011;6518;50.930;5.344;2023-12-22T08:46:30;9.63;;;2.77;;
12900;SDS011;6518;50.930;5.344;2023-12-22T08:48:57;10.50;;;2.73;;
12900;SDS011;6518;50.930;5.344;2023-12-22T08:51:24;13.43;;;3.60;;
12900;SDS011;6518;50.930;5.344;2023-12-22T08:53:52;11.63;;;3.07;;
12900;SDS011;6518;50.930;5.344;2023-12-22T08:56:20;13.43;;;3.43;;
12900;SDS011;6518;50.930;5.344;2023-12-22T08:58:48;12.00;;;3.30;;
12900;SDS011;6518;50.930;5.344;2023-12-22T09:01:16;10.47;;;3.37;;
12900;SDS011;6518;50.930;5.344;2023-12-22T09:03:44;13.50;;;3.10;;
12900;SDS011;6518;50.930;5.344;2023-12-22T09:06:13;9.80;;;3.00;;
12900;SDS011;6518;50.930;5.344;2023-12-22T09:08:40;7.07;;;3.03;;
12900;SDS011;6518;50.930;5.344;2023-12-22T09:11:07;8.97;;;3.00;;
12900;SDS011;6518;50.930;5.344;2023-12-22T09:13:34;6.70;;;2.60;;
12900;SDS011;6518;50.930;5.344;2023-12-22T09:16:04;9.10;;;3.13;;
12900;SDS011;6518;50.930;5.344;2023-12-22T09:18:31;8.90;;;2.87;;
12900;SDS011;6518;50.930;5.344;2023-12-22T09:20:58;4.47;;;2.40;;
12900;SDS011;6518;50.930;5.344;2023-12-22T09:23:25;7.10;;;2.50;;
12900;SDS011;6518;50.930;5.344;2023-12-22T09:25:52;5.83;;;2.70;;
12900;SDS011;6518;50.930;5.344;2023-12-22T09:28:19;8.57;;;2.57;;
12900;SDS011;6518;50.930;5.344;2023-12-22T09:30:46;3.97;;;2.30;;
12900;SDS011;6518;50.930;5.344;2023-12-22T09:33:15;6.33;;;2.80;;
12900;SDS011;6518;50.930;5.344;2023-12-22T09:35:42;7.40;;;2.20;;
12900;SDS011;6518;50.930;5.344;2023-12-22T09:38:09;5.37;;;2.47;;
12900;SDS011;6518;50.930;5.344;2023-12-22T09:40:37;4.83;;;2.50;;
12900;SDS011;6518;50.930;5.344;2023-12-22T09:43:04;5.60;;;3.50;;
12900;SDS011;6518;50.930;5.344;2023-12-22T09:45:33;5.53;;;2.30;;
12900;SDS011;6518;50.930;5.344;2023-12-22T09:48:00;4.60;;;2.60;;
12900;SDS011;6518;50.930;5.344;2023-12-22T09:50:30;8.20;;;3.33;;
12900;SDS011;6518;50.930;5.344;2023-12-22T09:52:57;3.23;;;1.93;;
12900;SDS011;6518;50.930;5.344;2023-12-22T09:55:25;4.37;;;2.00;;
12900;SDS011;6518;50.930;5.344;2023-12-22T09:57:53;1.77;;;1.43;;
12900;SDS011;6518;50.930;5.344;2023-12-22T10:00:23;4.67;;;2.60;;
12900;SDS011;6518;50.930;5.344;2023-12-22T10:02:52;2.70;;;2.00;;
12900;SDS011;6518;50.930;5.344;2023-12-22T10:05:19;2.27;;;1.83;;
12900;SDS011;6518;50.930;5.344;2023-12-22T10:07:48;2.77;;;1.90;;
12900;SDS011;6518;50.930;5.344;2023-12-22T10:10:16;4.10;;;2.43;;
12900;SDS011;6518;50.930;5.344;2023-12-22T10:12:44;6.07;;;2.37;;
12900;SDS011;6518;50.930;5.344;2023-12-22T10:15:12;6.27;;;3.00;;
12900;SDS011;6518;50.930;5.344;2023-12-22T10:17:40;7.10;;;3.03;;
12900;SDS011;6518;50.930;5.344;2023-12-22T10:20:08;7.07;;;3.50;;
12900;SDS011;6518;50.930;5.344;2023-12-22T10:22:35;5.30;;;2.80;;
12900;SDS011;6518;50.930;5.344;2023-12-22T10:25:04;4.43;;;2.87;;
12900;SDS011;6518;50.930;5.344;2023-12-22T10:27:32;4.83;;;2.13;;
12900;SDS011;6518;50.930;5.344;2023-12-22T10:30:00;2.23;;;1.57;;
12900;SDS011;6518;50.930;5.344;2023-12-22T10:32:27;3.27;;;1.90;;
12900;SDS011;6518;50.930;5.344;2023-12-22T10:34:55;4.80;;;2.10;;
12900;SDS011;6518;50.930;5.344;2023-12-22T10:37:23;5.13;;;2.10;;
12900;SDS011;6518;50.930;5.344;2023-12-22T10:39:51;7.00;;;2.20;;
12900;SDS011;6518;50.930;5.344;2023-12-22T10:42:20;2.73;;;2.10;;
12900;SDS011;6518;50.930;5.344;2023-12-22T10:44:47;3.97;;;1.90;;
12900;SDS011;6518;50.930;5.344;2023-12-22T10:47:15;3.90;;;1.80;;
12900;SDS011;6518;50.930;5.344;2023-12-22T10:49:43;3.37;;;2.33;;
12900;SDS011;6518;50.930;5.344;2023-12-22T10:52:15;2.17;;;1.80;;
12900;SDS011;6518;50.930;5.344;2023-12-22T10:54:43;5.30;;;2.13;;
12900;SDS011;6518;50.930;5.344;2023-12-22T10:57:10;5.07;;;2.30;;
12900;SDS011;6518;50.930;5.344;2023-12-22T10:59:40;5.17;;;1.83;;
12900;SDS011;6518;50.930;5.344;2023-12-22T11:02:14;6.03;;;2.33;;
12900;SDS011;6518;50.930;5.344;2023-12-22T11:04:44;7.77;;;2.10;;
12900;SDS011;6518;50.930;5.344;2023-12-22T11:07:19;6.43;;;1.77;;
12900;SDS011;6518;50.930;5.344;2023-12-22T11:09:49;4.07;;;1.83;;
12900;SDS011;6518;50.930;5.344;2023-12-22T11:12:19;4.87;;;1.70;;
12900;SDS011;6518;50.930;5.344;2023-12-22T11:14:47;4.20;;;1.43;;
12900;SDS011;6518;50.930;5.344;2023-12-22T11:17:17;3.73;;;1.70;;
12900;SDS011;6518;50.930;5.344;2023-12-22T11:19:47;3.83;;;1.63;;
12900;SDS011;6518;50.930;5.344;2023-12-22T11:22:17;5.73;;;2.20;;
12900;SDS011;6518;50.930;5.344;2023-12-22T11:24:46;3.40;;;1.50;;
12900;SDS011;6518;50.930;5.344;2023-12-22T11:27:15;6.50;;;1.60;;
12900;SDS011;6518;50.930;5.344;2023-12-22T11:29:44;9.03;;;2.50;;
12900;SDS011;6518;50.930;5.344;2023-12-22T11:32:15;5.37;;;2.07;;
12900;SDS011;6518;50.930;5.344;2023-12-22T11:34:43;3.27;;;1.60;;
12900;SDS011;6518;50.930;5.344;2023-12-22T11:37:11;4.53;;;1.70;;
12900;SDS011;6518;50.930;5.344;2023-12-22T11:39:38;5.53;;;1.50;;
12900;SDS011;6518;50.930;5.344;2023-12-22T11:42:06;5.03;;;1.53;;
12900;SDS011;6518;50.930;5.344;2023-12-22T11:44:35;5.63;;;1.80;;
12900;SDS011;6518;50.930;5.344;2023-12-22T11:47:06;7.67;;;1.77;;
12900;SDS011;6518;50.930;5.344;2023-12-22T11:49:35;6.77;;;2.00;;
12900;SDS011;6518;50.930;5.344;2023-12-22T11:54:51;5.23;;;1.60;;
12900;SDS011;6518;50.930;5.344;2023-12-22T11:57:29;3.23;;;1.20;;
12900;SDS011;6518;50.930;5.344;2023-12-22T12:00:01;4.07;;;1.67;;
12900;SDS011;6518;50.930;5.344;2023-12-22T12:02:32;5.53;;;1.33;;
12900;SDS011;6518;50.930;5.344;2023-12-22T12:05:02;3.60;;;1.20;;
12900;SDS011;6518;50.930;5.344;2023-12-22T12:07:42;5.03;;;1.67;;
12900;SDS011;6518;50.930;5.344;2023-12-22T12:10:11;4.27;;;1.37;;
12900;SDS011;6518;50.930;5.344;2023-12-22T12:12:39;7.03;;;1.43;;
12900;SDS011;6518;50.930;5.344;2023-12-22T12:15:07;5.00;;;1.50;;
12900;SDS011;6518;50.930;5.344;2023-12-22T12:17:39;2.50;;;0.80;;
12900;SDS011;6518;50.930;5.344;2023-12-22T12:20:09;3.83;;;1.20;;
12900;SDS011;6518;50.930;5.344;2023-12-22T12:22:37;4.50;;;1.20;;
12900;SDS011;6518;50.930;5.344;2023-12-22T12:25:09;3.00;;;1.10;;
12900;SDS011;6518;50.930;5.344;2023-12-22T12:27:37;3.80;;;1.50;;
12900;SDS011;6518;50.930;5.344;2023-12-22T12:30:11;4.50;;;1.40;;
12900;SDS011;6518;50.930;5.344;2023-12-22T12:32:43;4.83;;;0.77;;
12900;SDS011;6518;50.930;5.344;2023-12-22T12:35:12;3.07;;;1.10;;
12900;SDS011;6518;50.930;5.344;2023-12-22T12:37:39;5.43;;;1.47;;
12900;SDS011;6518;50.930;5.344;2023-12-22T12:40:07;2.83;;;1.10;;
12900;SDS011;6518;50.930;5.344;2023-12-22T12:42:35;5.33;;;1.77;;
12900;SDS011;6518;50.930;5.344;2023-12-22T12:45:03;3.10;;;1.43;;
12900;SDS011;6518;50.930;5.344;2023-12-22T12:47:31;3.57;;;1.33;;
12900;SDS011;6518;50.930;5.344;2023-12-22T12:49:58;4.17;;;1.43;;
12900;SDS011;6518;50.930;5.344;2023-12-22T12:52:26;5.13;;;1.60;;
12900;SDS011;6518;50.930;5.344;2023-12-22T12:54:54;4.53;;;1.30;;
12900;SDS011;6518;50.930;5.344;2023-12-22T12:57:23;6.43;;;1.70;;
12900;SDS011;6518;50.930;5.344;2023-12-22T12:59:51;6.00;;;1.63;;
12900;SDS011;6518;50.930;5.344;2023-12-22T13:02:18;5.30;;;1.50;;
12900;SDS011;6518;50.930;5.344;2023-12-22T13:04:45;5.60;;;1.90;;
12900;SDS011;6518;50.930;5.344;2023-12-22T13:07:12;6.67;;;1.67;;
12900;SDS011;6518;50.930;5.344;2023-12-22T13:09:41;4.20;;;1.23;;
12900;SDS011;6518;50.930;5.344;2023-12-22T13:12:08;7.23;;;1.90;;
12900;SDS011;6518;50.930;5.344;2023-12-22T13:14:35;4.83;;;1.40;;
12900;SDS011;6518;50.930;5.344;2023-12-22T13:17:03;6.23;;;1.47;;
12900;SDS011;6518;50.930;5.344;2023-12-22T13:19:31;4.80;;;1.20;;
12900;SDS011;6518;50.930;5.344;2023-12-22T13:21:58;5.40;;;1.43;;
12900;SDS011;6518;50.930;5.344;2023-12-22T13:24:25;3.60;;;1.03;;
12900;SDS011;6518;50.930;5.344;2023-12-22T13:27:00;2.30;;;1.17;;
12900;SDS011;6518;50.930;5.344;2023-12-22T13:29:29;2.67;;;1.20;;
12900;SDS011;6518;50.930;5.344;2023-12-22T13:31:56;6.07;;;1.97;;
12900;SDS011;6518;50.930;5.344;2023-12-22T13:34:23;4.27;;;1.20;;
12900;SDS011;6518;50.930;5.344;2023-12-22T13:36:51;4.40;;;1.17;;
12900;SDS011;6518;50.930;5.344;2023-12-22T13:39:18;4.70;;;1.30;;
12900;SDS011;6518;50.930;5.344;2023-12-22T13:41:45;2.90;;;1.07;;
12900;SDS011;6518;50.930;5.344;2023-12-22T13:44:13;4.63;;;1.10;;
12900;SDS011;6518;50.930;5.344;2023-12-22T13:46:40;4.83;;;1.40;;
12900;SDS011;6518;50.930;5.344;2023-12-22T13:49:09;5.27;;;1.30;;
12900;SDS011;6518;50.930;5.344;2023-12-22T13:51:39;6.10;;;1.43;;
12900;SDS011;6518;50.930;5.344;2023-12-22T13:54:07;6.93;;;1.50;;
12900;SDS011;6518;50.930;5.344;2023-12-22T13:56:34;4.47;;;1.10;;
12900;SDS011;6518;50.930;5.344;2023-12-22T13:59:02;1.63;;;0.80;;
12900;SDS011;6518;50.930;5.344;2023-12-22T14:01:30;4.63;;;1.70;;
12900;SDS011;6518;50.930;5.344;2023-12-22T14:03:57;3.67;;;1.37;;
12900;SDS011;6518;50.930;5.344;2023-12-22T14:06:25;2.87;;;1.03;;
12900;SDS011;6518;50.930;5.344;2023-12-22T14:08:52;3.93;;;1.43;;
12900;SDS011;6518;50.930;5.344;2023-12-22T14:11:19;3.43;;;1.00;;
12900;SDS011;6518;50.930;5.344;2023-12-22T14:13:46;2.87;;;1.03;;
12900;SDS011;6518;50.930;5.344;2023-12-22T14:16:14;4.70;;;1.37;;
12900;SDS011;6518;50.930;5.344;2023-12-22T14:18:42;5.57;;;1.43;;
12900;SDS011;6518;50.930;5.344;2023-12-22T14:21:10;5.43;;;1.47;;
12900;SDS011;6518;50.930;5.344;2023-12-22T14:23:37;5.20;;;1.23;;
12900;SDS011;6518;50.930;5.344;2023-12-22T14:26:04;4.67;;;1.70;;
12900;SDS011;6518;50.930;5.344;2023-12-22T14:28:31;6.43;;;1.37;;
12900;SDS011;6518;50.930;5.344;2023-12-22T14:30:58;3.57;;;1.20;;
12900;SDS011;6518;50.930;5.344;2023-12-22T14:33:25;5.20;;;1.20;;
12900;SDS011;6518;50.930;5.344;2023-12-22T14:35:53;3.97;;;1.20;;
12900;SDS011;6518;50.930;5.344;2023-12-22T14:38:20;3.33;;;1.13;;
12900;SDS011;6518;50.930;5.344;2023-12-22T14:40:47;6.97;;;1.20;;
12900;SDS011;6518;50.930;5.344;2023-12-22T14:43:14;5.43;;;1.23;;
12900;SDS011;6518;50.930;5.344;2023-12-22T14:45:41;3.70;;;1.10;;
12900;SDS011;6518;50.930;5.344;2023-12-22T14:48:08;5.97;;;1.20;;
12900;SDS011;6518;50.930;5.344;2023-12-22T14:50:34;6.77;;;1.40;;
12900;SDS011;6518;50.930;5.344;2023-12-22T14:53:02;7.33;;;1.40;;
12900;SDS011;6518;50.930;5.344;2023-12-22T14:55:29;5.60;;;1.43;;
12900;SDS011;6518;50.930;5.344;2023-12-22T14:57:57;6.63;;;1.33;;
12900;SDS011;6518;50.930;5.344;2023-12-22T15:00:24;6.80;;;1.60;;
12900;SDS011;6518;50.930;5.344;2023-12-22T15:02:51;3.93;;;1.00;;
12900;SDS011;6518;50.930;5.344;2023-12-22T15:05:18;2.77;;;1.30;;